CheckWX is a tool to help pilots better visualize weather data.  It is not intended as a substitute for an official pre-flight weather briefing.

04:45:22 UTC

KORD METAR
Chicago O'hare International Airport
Chicago, Illinois, USA
Current

54 mins ago

KORD 270351Z 16008KT 10SM FEW060 BKN140 OVC250 22/17 A3010 RMK AO2 LTG DSNT S SLP188 FRQ LTGICCC DSNT SE-S CB DSNT SE-S T02220172
Observed
Jun-27 @ 03:51 UTC
Wind
  • 160° at 8 KTS
Visibility
10 SM
Flight Rules
VFR
Cloud Levels
  • Few at 6,000' AGL
  • Broken at 14,000' AGL
  • Overcast at 25,000' AGL
Temperature
22°C / 72°F
Dewpoint
17°C / 63°F
Humidity
73%
Altimeter
30.1" Hg
Pressure
1019.32 hPa
Previous

2 hours ago

KORD 270251Z 12003KT 10SM FEW060 SCT100 BKN150 OVC250 22/18 A3009 RMK AO2 LTG DSNT SE AND S SLP184 FRQ LTGICCC DSNT SE CB DSNT SE MOV E 60015 T02220183 51021
Observed
Jun-27 @ 02:51 UTC
Wind
  • 120° at 3 KTS
Visibility
10 SM
Flight Rules
VFR
Cloud Levels
  • Few at 6,000' AGL
  • Scattered at 10,000' AGL
  • Broken at 15,000' AGL
  • Overcast at 25,000' AGL
Temperature
22°C / 72°F
Dewpoint
18°C / 64°F
Humidity
78%
Altimeter
30.09" Hg
Pressure
1018.92 hPa
Previous

3 hours ago

KORD 270151Z 12004KT 10SM FEW031 SCT090 SCT150 BKN250 23/19 A3008 RMK AO2 LTG DSNT E-SW RAE40 TSE40 SLP182 CB DSNT NE-E-SE MOV E P0015 T02280189
Observed
Jun-27 @ 01:51 UTC
Wind
  • 120° at 4 KTS
Visibility
10 SM
Flight Rules
VFR
Cloud Levels
  • Few at 3,100' AGL
  • Scattered at 9,000' AGL
  • Scattered at 15,000' AGL
  • Broken at 25,000' AGL
Temperature
23°C / 73°F
Dewpoint
19°C / 66°F
Humidity
78%
Altimeter
30.08" Hg
Pressure
1018.62 hPa
Current Rain
0.15"